x

Fairweather Ground 105nm West Of Juno, Ak (46083) Wave Buoy

11:50pm - Wed 2nd Sep 2015 All times are AKDT. -8 hours from GMT.

  • Sig Wave height 3.3ft
  • Swell Direction
  • Peak Period 7s
  • Average Period 6s
  • Wind
    7mph, 9mph gusts
  • Sea Temp 56°f
  • Air Temp 56°f
  • Sea Pressure 1017mb
  • Fairweather Ground 105nm West  Of Juno, Ak
  • Fairweather Ground 105nm West  Of Juno, Ak

More Historic Weather Station data

Upgrade to MSW Pro to gain access to the past 30 days of data for over 8000 Wavebouys and Weather Stations around the globe.

Join Pro

Comparision Forecast

View Surf forecast
   
Wed 09/02 11:50pm 3.5ft 7s 6s 7 9 mph 1017mb 56f 56f
10:50pm 2.5ft 8s 6s 9 11 mph 1016.8mb 57f 56f
9:50pm 3.5ft 8s 6s 9 11 mph 1016.7mb 57f 56f
8:50pm 2.5ft 7s 6s 7 9 mph 1016.4mb 57f 56f
7:50pm 2.5ft 8s 7s 9 11 mph 1015.9mb 58f 57f
6:50pm 2.5ft 8s 7s 9
mph
1015.6mb 58f 58f
5:50pm 3ft 8s 6s 7
mph
1015.3mb 58f 58f
4:50pm 3.5ft 9s 7s 4
mph
1015.2mb 58f 58f
3:50pm 3.5ft 8s 7s 4 7 mph 1015mb 59f 57f
2:50pm 3.5ft 8s 7s 2 4 mph 1014.8mb 58f 57f
1:50pm 3.5ft 8s 7s 7
mph
1014.4mb 58f 56f
12:50pm 3.5ft 8s 7s  -  2 mph 1014.3mb 57f 57f
11:50am 4ft 8s 7s 2 4 mph 1014mb 56f 57f
10:50am 4ft 8s 7s 4
mph
1013.6mb 56f 57f
9:50am 4ft 8s 7s 4 7 mph 1013.2mb 56f 57f
8:50am 4ft 8s 7s 7 9 mph 1012.9mb 56f 57f
7:50am 4ft 8s 7s 4
mph
1012.4mb 56f 57f
6:50am 3.5ft 8s 6s  -  mph 1012.1mb 56f 56f
5:50am 4ft 9s 7s 4
mph
1011.6mb 56f 56f
4:50am 4ft 9s 7s 2 4 mph 1011.3mb 56f 56f
3:50am 3.5ft 9s 6s 4
mph
1010.8mb 56f 56f
2:50am 4.5ft 9s 7s 7 9 mph 1010.3mb 56f 56f
1:50am 4.5ft 10s 6s 9 11 mph 1010mb 56f 56f
12:50am 4.5ft 9s 7s 9 11 mph 1009.6mb 56f 56f
Tue 09/01 11:50pm 5ft 9s 7s 9 11 mph 1009.3mb 56f 56f
10:50pm 5ft 10s 8s 11
mph
1009mb 56f 56f
9:50pm 5.5ft 10s 8s 11 13 mph 1008.6mb 56f 56f
8:50pm 6ft 11s 8s 9
mph
1008.4mb 56f 56f
7:50pm 5ft 9s 8s 4 7 mph 1008mb 57f 56f
6:50pm 5.5ft 11s 8s 4
mph
1007.8mb 57f 58f
5:50pm 5ft 10s 8s 2
mph
1007.5mb 57f 59f
4:50pm 5ft 10s 7s 2 4 mph 1007.2mb 57f 58f
3:50pm 5ft 9s 7s 2 4 mph 1006.8mb 58f 57f
2:50pm 6ft 10s 7s  -  2 mph 1006.5mb 58f 57f
1:50pm 6ft 10s 8s 4
mph
1006.3mb 57f 57f
12:50pm 6.5ft 11s 8s 7
mph
1006.1mb 56f 56f
11:50am 6.5ft 11s 7s 4 7 mph 1005.9mb 56f 56f
10:50am 6.5ft 11s 8s 4 7 mph 1005.4mb 56f 56f
8:50am 7ft 11s 8s  -  2 mph 1004.1mb 55f 55f
7:50am 6.5ft 11s 8s 4 9 mph 1003.6mb 56f 55f
6:50am 6.5ft 11s 7s 2 4 mph 1003.1mb 56f 56f
5:50am 7ft 10s 7s 11 13 mph 1002.7mb 56f 56f
4:50am 7ft 10s 7s 20 25 mph 1002.4mb 56f 55f
3:50am 7.5ft 10s 7s 18 22 mph 1002.1mb 56f 55f
2:50am 7ft 11s 8s 20 25 mph 1001.7mb 56f 55f
1:50am 7ft 10s 7s 11 13 mph 1001.4mb 56f 55f
12:50am 8ft 11s 8s 11 16 mph 1000.7mb 56f 54f
Mon 08/31 11:50pm 7.5ft 10s 7s 16 20 mph 999.7mb 56f 54f
10:50pm 7ft 11s 6s 22 29 mph 998.4mb 55f 54f
9:50pm 7.5ft 11s 6s 22 27 mph 998mb 55f 54f
8:50pm 8ft 10s 6s 20 27 mph 997.4mb 54f 53f
7:50pm 8.5ft 11s 6s 25 29 mph 996.6mb 54f 52f
6:50pm 9ft 11s 6s 27 31 mph 995.7mb 54f 52f
5:50pm 9ft 11s 7s 27 34 mph 995.2mb 54f 51f
4:50pm 10ft 11s 6s 27 34 mph 994.5mb 54f 51f
3:50pm 10ft 10s 7s 31 38 mph 993.5mb 55f 51f
2:50pm 10ft 11s 7s 31 38 mph 992.6mb 55f 52f
1:50pm 10.5ft 11s 7s 31 36 mph 992.6mb 55f 52f
12:50pm 10ft 11s 7s 29 38 mph 992.1mb 55f 52f
11:50am 11ft 11s 7s 29 38 mph 991.9mb 56f 52f
10:50am 10ft 11s 7s 27 34 mph 991.9mb 56f 52f
9:50am 9.5ft 11s 7s 27 34 mph 991.3mb 55f 53f
8:50am 10ft 11s 7s 29 36 mph 990.8mb 56f 52f
7:50am 9ft 11s 7s 25 34 mph 990.5mb 56f 52f
6:50am 9ft 11s 7s 25 31 mph 990.1mb 56f 51f
5:50am 8.5ft 10s 7s 25 31 mph 989.5mb 56f 52f
4:50am 9.5ft 11s 7s 22 27 mph 989mb 56f 52f
3:50am 10ft 11s 8s 13 18 mph 989mb 56f 51f
2:50am 8.5ft 10s 8s 20 22 mph 988.2mb 56f 53f
1:50am 8.5ft 11s 8s 18 20 mph 987.7mb 56f 53f
12:50am 8ft 8s 8s 13 16 mph 987.5mb 56f 52f
Sun 08/30 11:50pm 5.5ft 8s 7s 11
mph
986.9mb 56f 52f
10:50pm 5.5ft 8s 7s 9 11 mph 986.5mb 56f 52f
9:50pm 5ft 8s 6s 7 9 mph 985.9mb 56f 51f
8:50pm 4.5ft 8s 6s 4 9 mph 985.4mb 56f 50f
7:50pm 5ft 8s 6s 7 11 mph 984.6mb 56f 51f
6:50pm 5ft 8s 6s 9 11 mph 984.1mb 56f 50f
5:50pm 5.5ft 8s 6s 11 13 mph 983.4mb 56f 52f
4:50pm 5ft 8s 6s 11 13 mph 982.7mb 56f 52f
3:50pm 4.5ft 6s 5s 13 16 mph 982.3mb 56f 52f
2:50pm 5ft 9s 5s 11 16 mph 982mb 56f 52f
1:50pm 4.5ft 8s 5s 13 18 mph 981.5mb 56f 52f
12:50pm 4.5ft 7s 5s 16 20 mph 981.2mb 56f 51f
11:50am 4.5ft 8s 5s 18 22 mph 981.2mb 56f 50f
10:50am 4.5ft 8s 6s 13 18 mph 981mb 56f 51f
9:50am 5ft 8s 5s 11 13 mph 981.3mb 56f 52f